Date,TemperatureHighF,TemperatureAvgF,TemperatureLowF,DewpointHighF,DewpointAvgF,DewpointLowF,HumidityHigh,HumidityAvg,HumidityLow,PressureMaxIn,PressureMinIn,WindSpeedMaxMPH,WindSpeedAvgMPH,GustSpeedMaxMPH,PrecipitationSumIn
2013-1-1,33,31,25,31,28,21,94,89,83,30.09,29.98,4,1,9,0.00
2013-1-2,27,22,18,21,14,-100,84,73,58,30.25,30.07,7,2,13,0.00
2013-1-3,34,23,11,22,16,8,91,76,59,30.25,30.14,10,3,17,0.01
2013-1-4,34,30,28,23,21,19,77,70,58,30.28,30.17,10,5,18,0.01
2013-1-5,37,31,26,27,22,18,79,71,61,30.41,30.19,7,2,14,0.07
2013-1-6,39,36,33,32,28,25,85,73,65,30.22,30.02,6,2,13,0.19
2013-1-7,36,31,22,31,25,20,90,79,64,30.47,30.22,5,2,11,0.12
2013-1-8,45,30,18,31,24,16,92,80,55,30.38,30.28,4,0,9,0.13
2013-1-9,47,37,26,42,33,24,93,85,68,30.50,30.26,8,2,15,0.08
2013-1-10,43,35,26,33,29,24,94,80,65,30.63,30.30,2,0,4,0.01
2013-1-11,56,48,40,54,42,29,97,81,59,30.30,29.99,4,0,7,0.18
2013-1-12,64,56,47,57,52,46,97,89,73,30.11,29.99,5,1,10,0.01
2013-1-13,68,60,51,56,53,49,96,80,65,29.99,29.89,8,2,17,0.13
2013-1-14,58,41,32,57,34,25,96,79,63,30.38,29.91,11,2,21,0.20
2013-1-15,34,31,27,30,25,23,92,80,72,30.40,30.09,2,0,7,0.04
2013-1-16,35,33,32,34,32,30,95,93,87,30.09,29.92,5,1,11,0.56
2013-1-17,35,33,32,31,29,28,88,84,78,30.20,30.03,6,2,11,0.01
2013-1-18,32,28,20,27,16,9,83,61,49,30.51,30.18,8,3,16,0.01
2013-1-19,54,43,31,23,18,13,54,37,26,30.29,29.88,11,5,22,0.00
2013-1-20,48,38,24,31,20,13,64,51,38,30.16,29.83,12,6,24,0.00
2013-1-21,28,23,14,17,13,1,78,65,54,30.14,29.92,10,4,23,0.00
2013-1-22,16,11,8,6,0,-3,76,61,45,30.29,30.07,10,5,20,0.00
2013-1-23,18,12,6,11,2,-1,82,64,47,30.31,30.07,7,3,13,0.00
2013-1-24,24,16,12,14,8,-1,87,71,40,30.54,30.06,7,2,16,0.00
2013-1-25,20,16,12,16,10,4,87,78,65,30.53,30.03,4,0,7,0.00
2013-1-26,28,24,18,23,19,15,89,82,69,30.46,30.10,5,2,12,0.01
2013-1-27,32,23,11,23,16,8,91,76,56,30.55,30.32,2,0,4,0.20
2013-1-28,51,41,30,50,38,22,95,90,72,30.33,30.04,7,2,12,0.30
2013-1-29,66,57,50,56,52,49,97,84,66,30.08,29.83,5,2,14,0.07
2013-1-30,70,58,50,55,52,44,95,80,59,29.83,29.28,9,3,31,1.00
2013-1-31,49,28,24,44,19,13,88,67,55,29.88,29.28,15,8,28,0.57
2013-2-1,23,17,11,20,9,3,88,71,61,30.36,29.84,10,5,19,0.01
2013-2-2,24,18,9,22,13,4,90,80,67,30.35,29.98,7,2,14,0.00
2013-2-3,28,24,19,23,20,13,91,86,76,30.05,29.83,12,3,24,0.03
2013-2-4,29,23,18,27,18,12,93,81,64,30.10,29.87,8,3,17,0.01
2013-2-5,34,30,28,31,28,26,94,91,79,29.96,29.84,6,1,12,0.01
2013-2-6,33,28,18,27,21,-100,94,80,66,30.35,29.96,5,2,10,0.00
2013-2-7,45,31,16,30,24,14,92,76,54,30.32,29.99,4,1,9,0.07
2013-2-8,39,34,26,36,29,22,92,82,76,30.16,29.83,11,3,21,0.10
2013-2-9,34,27,23,22,19,17,85,73,53,30.40,30.16,7,2,15,0.01
2013-2-10,53,42,22,27,20,-100,89,46,30,30.32,30.00,4,1,8,0.00
2013-2-11,63,49,38,48,36,27,95,65,29,30.00,29.68,16,6,33,0.06
2013-2-12,44,37,29,28,26,24,84,63,49,30.10,29.93,11,4,19,0.01
2013-2-13,40,30,24,31,27,22,94,86,64,29.95,29.69,2,0,5,0.03
2013-2-14,43,35,29,35,28,-100,92,79,65,29.99,29.88,6,2,19,0.14
2013-2-15,40,35,29,34,30,26,94,83,63,30.07,29.92,7,2,17,0.02
2013-2-16,28,25,19,26,20,14,91,81,64,30.07,29.93,5,1,9,0.09
2013-2-17,23,20,16,19,12,6,86,74,57,30.28,29.93,10,5,19,0.01
2013-2-18,45,28,9,31,16,6,89,65,39,30.32,29.91,5,1,12,0.01
2013-2-19,46,38,26,39,30,16,88,74,47,29.97,29.70,12,6,28,0.21
2013-2-20,26,21,20,18,14,11,83,71,61,30.23,29.96,11,6,28,0.01
2013-2-21,26,22,20,19,16,13,86,75,63,30.36,30.20,5,2,12,0.00
2013-2-22,39,32,22,34,26,15,92,78,55,30.29,30.00,4,1,11,0.01
2013-2-23,47,38,31,39,33,28,92,84,72,30.02,29.87,4,1,8,0.01
2013-2-24,33,30,27,30,24,21,91,80,72,30.16,29.87,7,2,13,0.00
2013-2-25,43,33,23,27,23,20,89,69,44,30.24,30.07,3,1,10,0.00
2013-2-26,42,38,31,36,28,20,92,70,49,30.08,29.60,7,2,18,0.70
2013-2-27,43,40,34,39,36,31,94,87,75,29.71,29.58,9,3,15,0.48
2013-2-28,34,33,32,32,30,28,91,88,82,29.83,29.65,6,3,15,0.11
2013-3-1,34,31,27,31,26,21,91,83,73,29.99,29.83,5,2,10,0.02
2013-3-2,30,27,25,24,22,21,90,83,71,29.98,29.92,5,2,11,0.01
2013-3-3,29,26,24,23,20,18,90,79,65,30.03,29.94,8,4,16,0.01
2013-3-4,38,28,21,23,18,15,85,68,47,30.14,30.02,9,3,15,0.01
2013-3-5,49,37,19,30,19,14,90,51,26,30.09,29.70,5,2,11,0.01
2013-3-6,43,35,31,37,29,-100,100,83,64,30.12,29.69,5,0,9,0.56
2013-3-7,39,35,33,31,29,27,90,79,67,30.30,30.11,6,2,12,0.03
2013-3-8,37,33,26,29,27,23,89,78,69,30.42,30.29,8,2,15,0.01
2013-3-9,44,28,22,27,23,20,94,85,43,30.43,30.20,0,0,3,0.01
2013-3-10,58,43,36,35,30,26,79,62,34,30.20,30.03,2,0,6,0.01
2013-3-11,64,56,48,49,36,30,83,48,28,30.03,29.74,8,2,20,0.08
2013-3-12,53,41,37,49,34,28,90,78,65,30.03,29.78,10,4,18,0.15
2013-3-13,38,33,27,31,26,20,90,77,51,30.16,29.95,11,5,22,0.01
2013-3-14,40,31,25,22,19,17,75,63,45,30.25,30.14,10,5,19,0.01
2013-3-15,50,38,24,38,27,19,82,64,50,30.16,29.83,8,3,18,0.01
2013-3-16,43,39,35,39,36,32,94,91,82,29.98,29.64,6,1,12,0.03
2013-3-17,38,33,29,32,25,22,87,72,56,30.21,29.97,4,1,8,0.01
2013-3-18,42,36,31,36,29,-100,92,80,66,30.18,29.72,6,2,15,0.43
2013-3-19,48,40,31,42,28,18,94,64,35,30.00,29.71,17,7,32,0.17
2013-3-20,42,33,26,22,18,15,75,55,40,30.01,29.82,11,4,23,0.01
2013-3-21,29,25,18,20,14,9,86,65,48,29.93,29.88,9,4,17,0.00
2013-3-22,37,29,25,21,19,18,78,66,51,30.05,29.92,9,4,17,0.00
2013-3-23,48,33,19,27,22,17,91,66,36,30.05,29.99,7,1,14,0.00
2013-3-24,43,34,27,30,24,20,90,68,46,30.01,29.54,5,2,11,0.00
2013-3-25,36,33,31,34,31,28,94,92,79,29.75,29.47,4,1,10,0.46
2013-3-26,42,36,32,32,31,29,94,83,64,30.09,29.75,7,2,14,0.53
2013-3-27,44,37,32,32,28,25,92,72,49,30.18,30.09,9,4,16,0.03
2013-3-28,44,38,35,32,29,27,79,70,56,30.28,30.15,7,3,14,0.01
2013-3-29,53,43,35,34,28,23,86,60,33,30.29,30.17,8,2,15,0.00
2013-3-30,54,41,26,30,24,20,88,55,27,30.28,30.05,5,1,11,0.00
2013-3-31,50,45,39,46,36,-100,91,75,53,30.05,29.75,5,1,11,0.11
2013-4-1,47,42,32,43,30,15,88,65,33,30.04,29.75,11,4,19,0.03
2013-4-2,41,32,26,20,17,14,75,53,35,30.21,30.03,11,3,20,0.01
2013-4-3,43,32,25,21,15,9,76,51,32,30.42,30.20,10,2,20,0.00
2013-4-4,55,37,19,25,16,10,84,49,18,30.42,30.00,3,1,7,0.00
2013-4-5,57,43,30,34,26,20,81,52,34,30.19,29.96,9,2,15,0.00
2013-4-6,59,43,25,25,18,9,82,44,14,30.32,30.04,4,1,9,0.00
2013-4-7,71,61,52,49,36,-100,69,42,27,30.04,29.91,10,4,23,0.00
2013-4-8,74,62,45,53,46,41,89,59,37,30.07,29.93,8,2,18,0.00
2013-4-9,80,70,58,58,53,48,78,56,40,30.13,29.94,8,3,19,0.00
2013-4-10,82,71,59,61,56,51,94,61,43,30.00,29.82,10,3,20,0.11
2013-4-11,76,65,54,61,57,53,96,76,55,29.92,29.62,7,2,14,0.11
2013-4-12,68,59,46,60,50,35,95,73,44,29.89,29.55,12,4,20,0.43
2013-4-13,56,46,39,37,34,31,76,62,43,30.03,29.89,10,4,20,0.02
2013-4-14,62,48,31,38,31,-100,89,59,38,30.19,30.03,5,1,10,0.01
2013-4-15,66,61,55,50,45,37,67,56,48,30.14,30.01,6,2,15,0.00
2013-4-16,79,64,49,60,54,46,95,70,49,30.24,30.06,11,2,19,0.12
2013-4-17,66,58,54,58,54,51,96,86,71,30.28,30.13,2,0,4,0.18
2013-4-18,85,72,59,63,57,54,87,63,41,30.14,29.82,8,3,19,0.02
2013-4-19,72,61,45,60,49,31,88,66,53,29.91,29.53,11,5,26,0.01
2013-4-20,49,42,34,32,28,24,78,60,42,30.42,29.91,11,5,21,0.01
2013-4-21,54,41,28,31,24,22,81,54,31,30.62,30.42,5,1,9,0.09
2013-4-22,63,51,42,34,27,20,52,40,22,30.49,30.30,4,1,12,0.01
2013-4-23,70,55,39,41,35,31,77,50,26,30.32,30.01,4,1,12,0.00
2013-4-24,71,56,40,56,45,34,89,69,51,30.21,29.79,10,3,32,0.15
2013-4-25,58,46,34,39,33,29,90,64,33,30.39,30.21,9,3,17,0.06
2013-4-26,60,48,36,39,34,30,92,62,33,30.50,30.38,4,0,9,0.01
2013-4-27,74,56,34,43,36,31,91,53,21,30.43,30.19,3,1,9,0.00
2013-4-28,62,57,53,54,46,-100,92,71,45,30.20,29.98,4,1,13,0.19
2013-4-29,65,58,53,58,52,47,93,83,72,30.07,29.98,4,1,8,0.02
2013-4-30,73,61,50,57,52,49,95,75,54,30.23,30.07,4,1,10,0.01
2013-5-1,76,63,53,56,47,34,84,59,30,30.35,30.23,3,1,10,0.00
2013-5-2,78,63,46,48,38,31,77,43,18,30.40,30.23,4,1,10,0.00
2013-5-3,74,61,46,49,41,34,79,49,27,30.30,30.19,4,1,13,0.00
2013-5-4,71,59,44,47,40,34,75,50,32,30.25,30.12,4,1,11,0.00
2013-5-5,73,60,44,42,35,22,84,44,15,30.19,30.05,4,1,17,0.00
2013-5-6,70,58,43,55,46,36,83,67,53,30.13,30.03,4,1,12,0.00
2013-5-7,65,59,56,59,56,52,93,88,75,30.06,29.98,3,1,7,0.05
2013-5-8,71,61,52,56,52,45,96,75,42,30.03,29.92,2,0,7,0.05
2013-5-9,76,63,52,60,54,47,96,75,38,30.04,29.94,4,1,10,0.02
2013-5-10,76,61,56,65,55,-100,94,85,64,30.05,29.86,13,1,33,0.01
2013-5-11,61,57,50,59,55,47,96,91,79,29.89,29.82,3,1,7,0.00
2013-5-12,53,48,40,49,34,-100,91,61,40,30.09,29.87,7,3,17,0.01
2013-5-13,52,44,35,33,28,23,78,55,38,30.22,30.09,7,2,14,0.01
2013-5-14,61,47,31,43,36,28,95,67,41,30.23,29.94,3,1,9,0.03
2013-5-15,85,69,50,63,54,42,77,61,44,29.94,29.75,8,2,20,0.02
2013-5-16,77,64,61,65,37,-100,94,68,37,30.01,29.81,4,1,11,0.01
2013-5-17,79,67,58,64,51,-100,95,73,39,30.14,30.01,3,0,6,0.00
2013-5-18,81,67,53,65,57,50,93,73,46,30.17,30.06,3,0,9,0.00
2013-5-19,78,68,59,66,61,56,91,78,64,30.15,30.01,4,0,7,0.00
2013-5-20,83,72,59,68,64,57,95,77,57,30.08,29.96,4,1,10,0.00
2013-5-21,85,74,64,71,66,63,96,77,55,30.01,29.88,6,1,15,0.03
2013-5-22,86,71,64,68,63,60,93,78,52,29.95,29.83,6,1,14,0.29
2013-5-23,75,64,57,66,61,52,95,89,67,29.92,29.82,5,1,17,1.03
2013-5-24,54,46,40,52,39,31,93,79,60,30.32,29.92,7,2,14,0.23
2013-5-25,61,48,32,44,36,30,93,66,37,30.36,30.25,5,1,14,0.01
2013-5-26,66,52,36,43,38,33,93,62,34,30.35,30.24,6,1,12,0.00
2013-5-27,60,52,40,51,45,38,95,78,58,30.32,30.14,3,0,6,0.01
2013-5-28,79,65,55,69,59,49,96,82,56,30.14,30.03,5,1,14,0.22
2013-5-29,84,74,64,65,61,59,86,66,46,30.14,30.06,5,2,14,0.01
2013-5-30,86,73,60,69,63,58,94,73,46,30.24,30.13,4,0,8,0.00
2013-5-31,86,75,63,69,64,62,95,72,48,30.17,30.03,4,1,10,0.00
2013-6-1,85,76,65,68,65,62,93,72,54,30.07,29.87,6,2,15,0.04
2013-6-2,79,73,67,67,63,-100,90,73,55,29.92,29.85,7,2,20,0.03
2013-6-3,68,63,55,64,57,43,93,80,66,30.09,29.90,3,0,7,0.03
2013-6-4,70,57,42,52,46,39,94,68,44,30.21,30.09,2,0,8,0.00
2013-6-5,80,65,49,66,55,46,92,72,55,30.18,29.97,4,0,12,0.00
2013-6-6,70,66,63,67,63,59,96,90,70,29.98,29.82,2,0,8,0.71
2013-6-7,66,63,59,63,61,55,97,93,84,29.89,29.78,4,1,9,0.27
2013-6-8,71,62,57,60,56,53,91,80,62,30.15,29.88,3,0,7,0.01
2013-6-9,82,70,56,67,61,55,96,77,51,30.21,30.06,2,0,6,0.00
2013-6-10,74,69,66,70,66,63,96,90,78,30.07,29.84,3,1,10,0.24
2013-6-11,76,69,64,68,61,-100,95,83,65,29.94,29.85,5,1,9,0.05
2013-6-12,82,73,63,72,67,61,95,81,63,29.96,29.80,4,1,9,0.01
2013-6-13,73,67,62,71,63,55,95,87,78,29.83,29.58,4,2,16,0.80
2013-6-14,71,63,54,61,56,52,95,80,57,30.09,29.82,4,1,10,0.01
2013-6-15,76,65,53,59,54,49,97,72,41,30.17,30.04,3,1,8,0.00
2013-6-16,73,68,62,67,63,58,93,85,77,30.07,29.96,5,1,11,0.13
2013-6-17,82,72,65,67,63,60,92,75,47,30.02,29.93,3,1,8,0.03
2013-6-18,75,67,63,68,64,62,97,90,73,29.98,29.88,3,0,7,0.47
2013-6-19,76,66,57,62,56,49,95,73,41,30.18,29.97,3,0,7,0.03
2013-6-20,80,63,50,60,54,48,96,76,43,30.26,30.17,3,0,7,0.00
2013-6-22,85,81,71,70,68,66,88,64,55,30.24,30.11,6,1,9,0.00
2013-6-23,86,75,65,71,67,64,96,77,53,30.20,30.09,4,1,12,0.00
2013-6-24,86,73,65,70,67,64,96,81,54,30.19,30.04,3,0,8,0.00
2013-6-25,86,76,67,70,67,64,93,75,56,30.10,29.93,6,2,18,0.03
2013-6-26,82,74,67,71,68,64,96,83,68,30.01,29.86,4,1,9,1.45
2013-6-27,75,70,67,70,68,66,96,92,84,29.86,29.70,6,1,12,0.66
2013-6-28,75,68,63,70,66,62,97,92,80,29.70,29.55,5,0,10,0.25
2013-6-29,79,68,60,67,63,59,97,84,61,29.73,29.60,6,1,16,0.01
2013-6-30,82,71,61,70,65,60,98,83,59,29.88,29.73,4,0,10,0.01
2013-7-1,79,70,66,71,66,64,96,88,69,29.98,29.85,2,0,6,0.23
2013-7-2,82,73,66,72,68,65,97,85,59,30.10,29.97,4,0,8,0.21
2013-7-3,84,76,68,71,68,65,92,78,58,30.22,30.10,3,0,6,0.02
2013-7-4,85,76,70,71,69,67,96,79,59,30.27,30.15,3,1,9,0.11
2013-7-5,85,74,68,71,69,67,98,84,61,30.21,30.14,5,1,13,0.12
2013-7-6,87,77,68,76,69,67,96,80,54,30.22,30.06,3,1,9,0.00
2013-7-7,79,73,69,71,68,66,94,86,74,30.15,30.06,5,1,9,0.24
2013-7-8,82,73,66,71,67,62,95,84,64,30.17,30.09,4,1,10,0.12
2013-7-9,81,73,68,75,70,66,97,90,79,30.16,30.01,3,1,11,1.15
2013-7-10,85,71,66,78,66,-100,97,89,68,30.06,29.87,4,1,14,1.06
2013-7-11,78,68,63,68,64,59,97,86,61,30.03,29.93,2,0,5,0.09
2013-7-12,74,64,57,67,61,55,95,89,76,30.13,30.02,1,0,3,0.01
2013-7-13,81,73,62,70,66,60,96,80,61,30.27,30.12,1,0,6,0.01
2013-7-14,87,79,69,72,69,66,92,73,54,30.34,30.26,4,1,10,0.00
2013-7-15,88,76,68,75,69,67,97,82,55,30.38,30.28,2,0,5,0.00
2013-7-16,88,74,70,77,71,69,97,91,63,30.37,30.29,2,0,5,0.11
2013-7-17,87,74,70,77,72,69,98,93,69,30.35,30.21,5,0,9,0.14
2013-7-18,89,78,71,77,73,70,98,86,62,30.24,30.08,3,0,8,0.13
2013-7-19,88,78,73,77,72,69,96,85,63,30.08,29.91,5,1,11,0.06
2013-7-20,78,73,71,74,68,-100,93,86,81,29.96,29.88,4,1,13,0.04
2013-7-21,82,73,67,73,69,66,97,88,70,30.02,29.94,3,0,7,0.12
2013-7-22,79,70,66,73,68,65,98,95,76,29.99,29.82,2,0,4,0.97
2013-7-23,81,71,64,70,67,63,96,88,66,29.83,29.75,3,1,9,0.46
2013-7-24,71,66,60,65,59,55,97,79,57,30.03,29.80,3,0,7,0.44
2013-7-25,75,64,53,60,55,51,95,76,47,30.12,30.03,2,0,6,0.00
2013-7-26,78,64,55,61,57,54,97,79,48,30.14,30.04,2,0,6,0.00
2013-7-27,70,66,60,68,64,58,97,94,89,30.04,29.89,2,0,8,0.67
2013-7-28,75,68,58,66,61,54,96,80,53,30.07,29.90,5,1,11,0.21
2013-7-29,72,62,53,61,55,52,97,81,56,30.23,30.07,4,1,12,0.01
2013-7-30,75,63,55,62,57,54,97,83,53,30.27,30.19,2,0,5,0.01
2013-7-31,77,67,59,67,63,58,97,86,65,30.20,30.00,3,0,8,0.01
2013-8-1,80,70,64,69,64,60,96,82,57,30.01,29.90,3,0,7,0.03
2013-8-2,77,68,59,64,60,56,97,79,51,30.03,29.95,5,1,15,0.01
2013-8-3,73,67,61,67,64,56,96,88,78,30.03,29.97,4,1,8,0.18
2013-8-4,74,64,56,62,57,54,97,80,54,30.12,30.03,4,0,9,0.01
2013-8-5,73,62,54,61,56,51,97,83,50,30.17,30.05,2,0,6,0.00
2013-8-6,78,64,56,63,58,55,96,81,47,30.06,30.01,3,0,4,0.00
2013-8-7,83,69,61,75,66,60,96,89,66,30.04,29.96,3,0,7,1.24
2013-8-8,83,72,66,75,69,65,98,90,73,30.02,29.95,3,0,9,1.20
2013-8-9,79,73,67,74,70,66,97,92,84,30.06,29.94,3,0,7,0.26
2013-8-10,79,72,63,70,65,61,98,82,58,30.14,30.05,3,0,7,0.01
2013-8-11,70,66,61,69,64,60,97,95,91,30.15,30.07,2,0,4,0.11
2013-8-21,83,70,59,71,64,58,98,83,57,30.24,30.10,3,0,6,0.01
2013-8-22,81,72,66,71,67,64,96,85,68,30.15,30.02,4,1,11,0.02
2013-8-23,78,70,63,69,66,61,97,88,63,30.17,30.02,2,0,5,0.35
2013-8-24,79,66,55,65,60,54,97,82,49,30.34,30.17,3,0,6,0.01
2013-8-25,80,67,58,65,58,-100,98,78,54,30.41,30.28,3,0,7,0.00
2013-8-26,83,70,59,67,64,58,97,80,56,30.30,30.09,4,1,14,0.00
2013-8-27,79,73,68,72,69,66,95,87,77,30.08,29.99,4,1,6,0.02
2013-10-2,79,66,57,67,61,56,96,84,60,30.15,30.07,4,1,9,0.00
2013-10-3,79,68,59,67,63,58,97,85,66,30.14,30.05,3,0,7,0.06
2013-10-4,81,68,63,69,61,-100,98,84,62,30.13,30.06,4,1,10,0.03
2013-10-5,82,71,63,70,66,62,97,86,62,30.14,30.02,4,0,8,0.01
2013-10-6,85,74,65,67,64,60,96,73,44,30.02,29.81,4,1,11,0.01
2013-10-7,72,58,47,60,50,44,94,78,57,30.16,29.74,5,2,13,0.30
2013-10-8,67,53,42,52,45,41,97,78,47,30.34,30.16,2,0,5,0.01
2013-10-9,70,53,40,50,43,39,96,73,40,30.37,30.27,2,0,7,0.00
2013-10-10,72,57,46,51,46,42,86,67,43,30.27,30.13,2,0,5,0.00
2013-10-18,61,50,44,48,44,41,93,81,50,30.03,29.95,3,1,10,0.01
2013-10-19,54,45,40,48,42,38,97,90,79,30.02,29.80,6,1,14,0.04
2013-10-20,58,46,39,42,37,-100,92,74,48,30.09,29.99,6,2,14,0.03
2013-10-21,66,50,37,44,38,35,94,67,33,30.10,29.90,5,1,12,0.00
2013-10-22,54,47,41,48,38,30,92,71,44,30.01,29.86,4,1,12,0.14
2013-10-23,43,40,37,39,37,34,92,88,74,29.96,29.78,3,1,7,0.14
2013-10-24,46,39,34,34,32,27,90,77,48,30.18,29.96,4,2,12,0.04
2013-10-25,47,40,32,37,31,29,94,71,51,30.37,30.18,3,1,9,0.05
2013-10-26,46,34,31,32,30,28,88,83,56,30.29,30.01,2,1,8,0.05
2013-10-27,53,43,33,37,31,-100,92,67,45,30.14,30.01,5,1,11,0.00
2013-10-28,58,41,31,40,33,-100,97,78,43,30.31,30.13,3,0,6,0.00
2013-10-29,60,45,33,44,38,32,96,78,44,30.41,30.29,2,0,6,0.00
2013-10-30,63,52,43,55,46,38,91,81,65,30.29,30.16,1,0,5,0.00